Time,TemperatureF,DewpointF,PressureIn,WindDirection,WindDirectionDegrees,WindSpeedMPH,WindSpeedGustMPH,Humidity,HourlyPrecipIn,Conditions,Clouds,dailyrainin,SolarRadiationWatts/m^2,SoftwareType,DateUTC
2013-09-30 00:00:00,58.2,57.1,29.97,ENE,74,0.0,0.0,96,0.00,RA,,0.00,0.0,WeatherDisplay:10.37,2013-09-30 04:00:00,
2013-09-30 00:01:00,58.2,57.1,29.97,ENE,74,0.0,0.0,96,0.00,RA,,0.00,0.0,WeatherDisplay:10.37,2013-09-30 04:01:00,
2013-09-30 00:06:00,58.2,57.1,29.97,ENE,74,0.0,0.0,96,0.00,RA,,0.00,0.0,WeatherDisplay:10.37,2013-09-30 04:06:00,
2013-09-30 00:11:00,58.2,57.1,29.97,ENE,74,1.2,1.2,96,0.00,CLR,,0.00,0.0,WeatherDisplay:10.37,2013-09-30 04:11:00,
2013-09-30 00:16:00,58.2,57.1,29.97,ENE,74,2.3,2.3,96,0.00,CLR,,0.00,0.0,WeatherDisplay:10.37,2013-09-30 04:16:00,
2013-09-30 00:21:00,58.2,57.1,29.97,ENE,74,2.3,2.3,96,0.00,CLR,,0.00,0.0,WeatherDisplay:10.37,2013-09-30 04:21:00,
2013-09-30 00:26:00,58.1,57.0,29.97,ENE,74,0.0,0.0,96,0.00,CLR,,0.00,0.0,WeatherDisplay:10.37,2013-09-30 04:26:00,
2013-09-30 00:31:00,58.1,57.0,29.97,ENE,74,0.0,0.0,96,0.00,CLR,,0.00,0.0,WeatherDisplay:10.37,2013-09-30 04:31:00,
2013-09-30 00:36:00,58.1,57.0,29.97,ENE,74,1.2,1.2,96,0.00,CLR,,0.00,0.0,WeatherDisplay:10.37,2013-09-30 04:36:00,
2013-09-30 00:41:00,58.1,57.0,29.97,ENE,74,1.2,0.0,96,0.00,CLR,,0.00,0.0,WeatherDisplay:10.37,2013-09-30 04:41:00,
2013-09-30 00:46:00,58.0,56.9,29.97,ENE,74,0.0,0.0,96,0.00,CLR,,0.00,0.0,WeatherDisplay:10.37,2013-09-30 04:46:00,
2013-09-30 00:51:00,58.1,57.3,29.97,ENE,74,0.0,0.0,97,0.00,CLR,,0.00,0.0,WeatherDisplay:10.37,2013-09-30 04:51:00,
2013-09-30 00:56:00,58.1,57.3,29.97,ENE,74,0.0,0.0,97,0.00,CLR,,0.00,0.0,WeatherDisplay:10.37,2013-09-30 04:56:00,
2013-09-30 01:01:00,58.0,57.2,29.97,ENE,74,0.0,0.0,97,0.00,CLR,,0.00,0.0,WeatherDisplay:10.37,2013-09-30 05:01:00,
2013-09-30 01:07:00,58.0,57.2,29.97,ENE,74,0.0,0.0,97,0.00,CLR,,0.00,0.0,WeatherDisplay:10.37,2013-09-30 05:07:00,
2013-09-30 01:12:00,58.0,56.9,29.97,ENE,74,0.0,0.0,96,0.00,CLR,,0.00,0.0,WeatherDisplay:10.37,2013-09-30 05:12:00,
2013-09-30 01:17:00,58.0,56.9,29.97,ENE,74,2.3,2.3,96,0.00,CLR,,0.00,0.0,WeatherDisplay:10.37,2013-09-30 05:17:00,
2013-09-30 01:22:00,58.0,56.9,29.97,ENE,74,0.0,0.0,96,0.00,CLR,,0.00,0.0,WeatherDisplay:10.37,2013-09-30 05:22:00,
2013-09-30 01:27:00,58.0,56.9,29.97,ENE,74,2.3,2.3,96,0.00,CLR,,0.00,0.0,WeatherDisplay:10.37,2013-09-30 05:27:00,
2013-09-30 01:32:00,58.0,57.2,29.97,ENE,74,2.3,2.3,97,0.00,CLR,,0.00,0.0,WeatherDisplay:10.37,2013-09-30 05:32:00,
2013-09-30 01:37:00,58.0,57.2,29.97,ENE,74,1.2,1.2,97,0.00,CLR,,0.00,0.0,WeatherDisplay:10.37,2013-09-30 05:37:00,
2013-09-30 01:42:00,58.0,57.2,29.98,ENE,74,0.0,0.0,97,0.00,CLR,,0.00,0.0,WeatherDisplay:10.37,2013-09-30 05:42:00,
2013-09-30 01:47:00,58.0,57.2,29.97,ENE,74,0.0,0.0,97,0.00,CLR,,0.00,0.0,WeatherDisplay:10.37,2013-09-30 05:47:00,
2013-09-30 01:52:00,58.0,57.2,29.98,ENE,74,0.0,0.0,97,0.00,CLR,,0.00,0.0,WeatherDisplay:10.37,2013-09-30 05:52:00,
2013-09-30 01:57:00,58.0,57.2,29.98,ENE,74,0.0,0.0,97,0.00,CLR,,0.00,0.0,WeatherDisplay:10.37,2013-09-30 05:57:00,
2013-09-30 02:02:00,58.1,57.3,29.98,ENE,74,2.3,2.3,97,0.00,CLR,,0.00,0.0,WeatherDisplay:10.37,2013-09-30 06:02:00,
2013-09-30 02:07:00,58.0,57.2,29.98,ENE,74,0.0,0.0,97,0.00,CLR,,0.00,0.0,WeatherDisplay:10.37,2013-09-30 06:07:00,
2013-09-30 02:12:00,58.0,56.9,29.98,ENE,74,0.0,0.0,96,0.00,CLR,,0.00,0.0,WeatherDisplay:10.37,2013-09-30 06:12:00,
2013-09-30 02:17:00,58.0,56.9,29.98,ENE,74,0.0,0.0,96,0.00,CLR,,0.00,0.0,WeatherDisplay:10.37,2013-09-30 06:17:00,
2013-09-30 02:22:00,57.9,56.8,29.98,ENE,74,2.3,2.3,96,0.00,CLR,,0.00,0.0,WeatherDisplay:10.37,2013-09-30 06:22:00,
2013-09-30 02:27:00,57.9,56.8,29.98,ENE,74,0.0,0.0,96,0.00,CLR,,0.00,0.0,WeatherDisplay:10.37,2013-09-30 06:27:00,
2013-09-30 02:32:00,57.9,56.8,29.97,ENE,74,0.0,0.0,96,0.00,CLR,,0.00,0.0,WeatherDisplay:10.37,2013-09-30 06:32:00,
2013-09-30 02:37:00,57.8,56.7,29.97,ENE,74,1.2,1.2,96,0.00,CLR,,0.00,0.0,WeatherDisplay:10.37,2013-09-30 06:37:00,
2013-09-30 02:42:00,57.7,56.6,29.97,ENE,74,0.0,0.0,96,0.00,CLR,,0.00,0.0,WeatherDisplay:10.37,2013-09-30 06:42:00,
2013-09-30 02:47:00,57.6,56.5,29.97,ENE,74,0.0,0.0,96,0.00,CLR,,0.00,0.0,WeatherDisplay:10.37,2013-09-30 06:47:00,
2013-09-30 02:52:00,57.5,56.4,29.97,ENE,74,0.0,0.0,96,0.00,CLR,,0.00,0.0,WeatherDisplay:10.37,2013-09-30 06:52:00,
2013-09-30 02:57:00,57.3,56.2,29.96,ENE,74,0.0,0.0,96,0.00,CLR,,0.00,0.0,WeatherDisplay:10.37,2013-09-30 06:57:00,
2013-09-30 03:02:00,57.2,56.1,29.96,ENE,74,0.0,0.0,96,0.00,CLR,,0.00,0.0,WeatherDisplay:10.37,2013-09-30 07:02:00,
2013-09-30 03:07:00,57.0,55.9,29.97,ENE,74,0.0,0.0,96,0.00,CLR,,0.00,0.0,WeatherDisplay:10.37,2013-09-30 07:07:00,
2013-09-30 03:12:00,56.9,55.8,29.96,ENE,74,0.0,0.0,96,0.00,CLR,,0.00,0.0,WeatherDisplay:10.37,2013-09-30 07:12:00,
2013-09-30 03:17:00,56.8,55.7,29.96,ENE,74,0.0,0.0,96,0.00,CLR,,0.00,0.0,WeatherDisplay:10.37,2013-09-30 07:17:00,
2013-09-30 03:22:00,56.8,56.0,29.96,ENE,74,1.2,1.2,97,0.00,CLR,,0.00,0.0,WeatherDisplay:10.37,2013-09-30 07:22:00,
2013-09-30 03:27:00,56.9,56.1,29.96,ENE,74,0.0,0.0,97,0.00,CLR,,0.00,0.0,WeatherDisplay:10.37,2013-09-30 07:27:00,
2013-09-30 03:32:00,56.9,56.1,29.96,ENE,74,0.0,0.0,97,0.00,CLR,,0.00,0.0,WeatherDisplay:10.37,2013-09-30 07:32:00,
2013-09-30 03:37:00,56.9,56.1,29.96,ENE,74,0.0,0.0,97,0.00,CLR,,0.00,0.0,WeatherDisplay:10.37,2013-09-30 07:37:00,
2013-09-30 03:42:00,56.8,56.0,29.96,ENE,74,0.0,0.0,97,0.00,CLR,,0.00,0.0,WeatherDisplay:10.37,2013-09-30 07:42:00,
2013-09-30 03:47:00,56.8,56.0,29.96,ENE,74,1.0,0.0,97,0.00,CLR,,0.00,0.0,WeatherDisplay:10.37,2013-09-30 07:47:00,
2013-09-30 03:52:00,56.7,55.9,29.96,ENE,74,1.2,1.2,97,0.00,CLR,,0.00,0.0,WeatherDisplay:10.37,2013-09-30 07:52:00,
2013-09-30 03:57:00,56.7,55.9,29.96,ENE,74,3.0,3.0,97,0.00,CLR,,0.00,0.0,WeatherDisplay:10.37,2013-09-30 07:57:00,
2013-09-30 04:02:00,56.6,55.8,29.96,ENE,74,2.3,2.3,97,0.00,CLR,,0.00,0.0,WeatherDisplay:10.37,2013-09-30 08:02:00,
2013-09-30 04:07:00,56.5,55.7,29.96,ENE,74,3.5,3.5,97,0.00,CLR,,0.00,0.0,WeatherDisplay:10.37,2013-09-30 08:07:00,
2013-09-30 04:12:00,56.4,55.6,29.97,ENE,74,0.0,0.0,97,0.00,CLR,,0.00,0.0,WeatherDisplay:10.37,2013-09-30 08:12:00,
2013-09-30 04:17:00,56.4,55.6,29.97,ENE,74,3.0,3.0,97,0.00,CLR,,0.00,0.0,WeatherDisplay:10.37,2013-09-30 08:17:00,
2013-09-30 04:22:00,56.3,55.5,29.97,ENE,74,3.0,3.0,97,0.00,CLR,,0.00,0.0,WeatherDisplay:10.37,2013-09-30 08:22:00,
2013-09-30 04:27:00,56.2,55.4,29.97,ENE,74,1.2,0.0,97,0.00,CLR,,0.00,0.0,WeatherDisplay:10.37,2013-09-30 08:27:00,
2013-09-30 04:32:00,56.1,55.3,29.97,ENE,74,1.2,1.2,97,0.00,CLR,,0.00,0.0,WeatherDisplay:10.37,2013-09-30 08:32:00,
2013-09-30 04:37:00,56.1,55.3,29.97,ENE,74,2.3,2.3,97,0.00,CLR,,0.00,0.0,WeatherDisplay:10.37,2013-09-30 08:37:00,
2013-09-30 04:42:00,56.1,55.3,29.97,ENE,74,0.0,0.0,97,0.00,CLR,,0.00,0.0,WeatherDisplay:10.37,2013-09-30 08:42:00,
2013-09-30 04:47:00,56.2,55.4,29.97,ENE,74,0.0,0.0,97,0.00,CLR,,0.00,0.0,WeatherDisplay:10.37,2013-09-30 08:47:00,
2013-09-30 04:52:00,56.2,55.4,29.97,ENE,74,0.0,0.0,97,0.00,CLR,,0.00,0.0,WeatherDisplay:10.37,2013-09-30 08:52:00,
2013-09-30 04:57:00,56.3,55.5,29.97,ENE,74,0.0,0.0,97,0.00,CLR,,0.00,0.0,WeatherDisplay:10.37,2013-09-30 08:57:00,
2013-09-30 05:02:00,56.3,55.5,29.97,ENE,74,1.0,1.0,97,0.00,CLR,,0.00,0.0,WeatherDisplay:10.37,2013-09-30 09:02:00,
2013-09-30 05:07:00,56.4,55.6,29.98,ENE,74,1.2,1.2,97,0.00,CLR,,0.00,0.0,WeatherDisplay:10.37,2013-09-30 09:07:00,
2013-09-30 05:12:00,56.4,55.6,29.98,ENE,74,0.0,0.0,97,0.00,CLR,,0.00,0.0,WeatherDisplay:10.37,2013-09-30 09:12:00,
2013-09-30 05:17:00,56.4,55.6,29.98,ENE,74,2.3,2.3,97,0.00,CLR,,0.00,0.0,WeatherDisplay:10.37,2013-09-30 09:17:00,
2013-09-30 05:22:00,56.4,55.6,29.98,ENE,74,1.2,1.2,97,0.00,CLR,,0.00,0.0,WeatherDisplay:10.37,2013-09-30 09:22:00,
2013-09-30 05:27:00,56.5,55.9,29.98,ENE,74,2.3,2.3,98,0.00,CLR,,0.00,0.0,WeatherDisplay:10.37,2013-09-30 09:27:00,
2013-09-30 05:32:00,56.5,55.9,29.98,ENE,74,3.5,3.5,98,0.00,CLR,,0.00,0.0,WeatherDisplay:10.37,2013-09-30 09:32:00,
2013-09-30 05:37:00,56.4,55.8,29.97,NNE,30,4.6,4.6,98,0.00,CLR,,0.00,0.0,WeatherDisplay:10.37,2013-09-30 09:37:00,
2013-09-30 05:42:00,56.2,55.4,29.97,North,5,3.5,3.5,97,0.00,CLR,,0.00,0.0,WeatherDisplay:10.37,2013-09-30 09:42:00,
2013-09-30 05:47:00,56.1,55.3,29.97,North,5,3.5,3.5,97,0.00,CLR,,0.00,0.0,WeatherDisplay:10.37,2013-09-30 09:47:00,
2013-09-30 05:52:00,56.1,55.5,29.97,North,5,1.0,1.0,98,0.00,CLR,,0.00,0.0,WeatherDisplay:10.37,2013-09-30 09:52:00,
2013-09-30 05:57:00,56.1,55.5,29.97,North,5,0.0,0.2,98,0.00,CLR,,0.00,0.0,WeatherDisplay:10.37,2013-09-30 09:57:00,
2013-09-30 06:02:00,56.0,55.4,29.98,North,5,2.3,2.3,98,0.00,CLR,,0.00,0.0,WeatherDisplay:10.37,2013-09-30 10:02:00,
2013-09-30 06:07:00,56.0,55.4,29.97,North,5,1.2,0.0,98,0.00,CLR,,0.00,0.0,WeatherDisplay:10.37,2013-09-30 10:07:00,
2013-09-30 06:12:00,55.9,55.3,29.97,North,5,0.0,0.0,98,0.00,CLR,,0.00,0.0,WeatherDisplay:10.37,2013-09-30 10:12:00,
2013-09-30 06:17:00,55.9,55.3,29.98,North,5,0.0,0.0,98,0.00,CLR,,0.00,0.0,WeatherDisplay:10.37,2013-09-30 10:17:00,
2013-09-30 06:22:00,55.9,55.3,29.98,North,5,1.0,1.0,98,0.00,CLR,,0.00,0.0,WeatherDisplay:10.37,2013-09-30 10:22:00,
2013-09-30 06:27:00,55.9,55.3,29.98,North,5,1.2,1.2,98,0.00,CLR,,0.00,0.0,WeatherDisplay:10.37,2013-09-30 10:27:00,
2013-09-30 06:32:00,55.9,55.3,29.98,North,5,1.2,1.2,98,0.00,CLR,,0.00,0.0,WeatherDisplay:10.37,2013-09-30 10:32:00,
2013-09-30 06:37:00,55.8,55.2,29.98,North,5,1.0,1.0,98,0.00,CLR,,0.00,0.0,WeatherDisplay:10.37,2013-09-30 10:37:00,
2013-09-30 06:42:00,55.7,55.1,29.98,North,5,2.3,2.3,98,0.00,CLR,,0.00,0.0,WeatherDisplay:10.37,2013-09-30 10:42:00,
2013-09-30 06:47:00,55.6,55.0,29.98,North,5,0.0,0.0,98,0.00,CLR,,0.00,0.0,WeatherDisplay:10.37,2013-09-30 10:47:00,
2013-09-30 06:52:00,55.5,54.9,29.98,North,5,0.0,0.0,98,0.00,CLR,,0.00,0.0,WeatherDisplay:10.37,2013-09-30 10:52:00,
2013-09-30 06:57:00,55.5,54.9,29.98,North,5,0.0,0.0,98,0.00,CLR,,0.00,0.0,WeatherDisplay:10.37,2013-09-30 10:57:00,
2013-09-30 07:02:00,55.4,54.8,29.98,North,5,0.0,0.0,98,0.00,CLR,,0.00,0.0,WeatherDisplay:10.37,2013-09-30 11:02:00,
2013-09-30 07:07:00,55.4,54.8,29.98,North,5,0.0,0.0,98,0.00,CLR,,0.00,0.0,WeatherDisplay:10.37,2013-09-30 11:07:00,
2013-09-30 07:12:00,55.3,54.7,29.99,North,5,0.0,0.0,98,0.00,CLR,,0.00,0.0,WeatherDisplay:10.37,2013-09-30 11:12:00,
2013-09-30 07:18:00,55.3,54.7,29.99,North,5,0.0,0.0,98,0.00,CLR,,0.00,0.0,WeatherDisplay:10.37,2013-09-30 11:18:00,
2013-09-30 07:23:00,55.3,54.7,29.99,North,5,0.0,0.0,98,0.00,CLR,,0.00,0.0,WeatherDisplay:10.37,2013-09-30 11:23:00,
2013-09-30 07:28:00,55.2,54.6,29.99,North,5,1.0,1.0,98,0.00,CLR,,0.00,0.0,WeatherDisplay:10.37,2013-09-30 11:28:00,
2013-09-30 07:33:00,55.2,54.6,29.99,North,5,1.2,1.2,98,0.00,CLR,,0.00,0.0,WeatherDisplay:10.37,2013-09-30 11:33:00,
2013-09-30 07:38:00,55.2,54.6,29.99,North,5,0.0,0.0,98,0.00,CLR,,0.00,0.0,WeatherDisplay:10.37,2013-09-30 11:38:00,
2013-09-30 07:43:00,55.1,54.5,30.00,North,5,0.0,0.0,98,0.00,CLR,,0.00,5.0,WeatherDisplay:10.37,2013-09-30 11:43:00,
2013-09-30 07:48:00,55.1,54.5,30.00,North,5,0.0,0.1,98,0.00,CLR,,0.00,5.0,WeatherDisplay:10.37,2013-09-30 11:48:00,
2013-09-30 07:53:00,55.1,54.5,30.00,North,5,2.3,2.3,98,0.00,CLR,,0.00,7.0,WeatherDisplay:10.37,2013-09-30 11:53:00,
2013-09-30 07:58:00,55.0,54.4,30.00,North,5,0.0,0.2,98,0.00,CLR,,0.00,11.0,WeatherDisplay:10.37,2013-09-30 11:58:00,
2013-09-30 08:03:00,54.9,54.3,30.00,North,5,0.0,0.0,98,0.00,CLR,,0.00,12.0,WeatherDisplay:10.37,2013-09-30 12:03:00,
2013-09-30 08:08:00,54.9,54.3,30.00,North,5,0.0,0.0,98,0.00,CLR,,0.00,16.0,WeatherDisplay:10.37,2013-09-30 12:08:00,
2013-09-30 08:13:00,54.9,54.3,30.00,North,5,0.0,0.0,98,0.00,CLR,,0.00,19.0,WeatherDisplay:10.37,2013-09-30 12:13:00,
2013-09-30 08:18:00,54.9,54.3,30.00,North,5,0.0,0.0,98,0.00,CLR,,0.00,23.0,WeatherDisplay:10.37,2013-09-30 12:18:00,
2013-09-30 08:23:00,55.0,54.4,30.00,North,5,0.0,0.0,98,0.00,CLR,,0.00,26.0,WeatherDisplay:10.37,2013-09-30 12:23:00,
2013-09-30 08:28:00,54.9,54.3,30.00,North,5,0.0,0.0,98,0.00,CLR,,0.00,32.0,WeatherDisplay:10.37,2013-09-30 12:28:00,
2013-09-30 08:33:00,55.0,54.4,30.00,North,5,0.0,0.0,98,0.00,CLR,,0.00,35.0,WeatherDisplay:10.37,2013-09-30 12:33:00,
2013-09-30 08:38:00,55.0,54.4,30.00,North,5,0.0,0.0,98,0.00,CLR,,0.00,40.0,WeatherDisplay:10.37,2013-09-30 12:38:00,
2013-09-30 08:43:00,55.1,54.5,30.00,North,5,0.0,0.0,98,0.00,CLR,,0.00,42.0,WeatherDisplay:10.37,2013-09-30 12:43:00,
2013-09-30 08:48:00,55.0,54.4,30.00,North,5,0.0,0.0,98,0.00,CLR,,0.00,49.0,WeatherDisplay:10.37,2013-09-30 12:48:00,
2013-09-30 08:53:00,55.0,54.4,30.00,North,5,0.0,0.0,98,0.00,CLR,,0.00,56.0,WeatherDisplay:10.37,2013-09-30 12:53:00,
2013-09-30 08:58:00,55.0,54.4,30.00,North,5,0.0,0.0,98,0.00,CLR,,0.00,60.0,WeatherDisplay:10.37,2013-09-30 12:58:00,
2013-09-30 09:03:00,55.1,54.5,30.00,North,5,0.0,0.0,98,0.00,OVC,,0.00,67.0,WeatherDisplay:10.37,2013-09-30 13:03:00,
2013-09-30 09:08:00,55.1,54.5,30.00,North,5,1.0,1.0,98,0.00,OVC,,0.00,70.0,WeatherDisplay:10.37,2013-09-30 13:08:00,
2013-09-30 09:13:00,55.2,54.6,30.00,North,5,1.2,0.0,98,0.00,OVC,,0.00,79.0,WeatherDisplay:10.37,2013-09-30 13:13:00,
2013-09-30 09:18:00,55.3,54.7,30.00,North,5,1.2,1.2,98,0.00,OVC,,0.00,81.0,WeatherDisplay:10.37,2013-09-30 13:18:00,
2013-09-30 09:23:00,55.3,54.7,30.00,North,5,1.2,1.2,98,0.00,OVC,,0.00,79.0,WeatherDisplay:10.37,2013-09-30 13:23:00,
2013-09-30 09:28:00,55.3,54.7,30.00,North,5,0.0,0.1,98,0.00,OVC,,0.00,84.0,WeatherDisplay:10.37,2013-09-30 13:28:00,
2013-09-30 09:33:00,55.4,54.6,30.00,North,5,1.2,1.2,97,0.00,OVC,,0.00,86.0,WeatherDisplay:10.37,2013-09-30 13:33:00,
2013-09-30 09:38:00,55.6,54.8,30.01,North,5,1.0,0.0,97,0.00,OVC,,0.00,90.0,WeatherDisplay:10.37,2013-09-30 13:38:00,
2013-09-30 09:43:00,55.9,55.1,30.01,North,5,1.0,1.0,97,0.00,OVC,,0.00,93.0,WeatherDisplay:10.37,2013-09-30 13:43:00,
2013-09-30 09:48:00,55.9,55.1,30.01,North,5,1.2,0.0,97,0.00,OVC,,0.00,105.0,WeatherDisplay:10.37,2013-09-30 13:48:00,
2013-09-30 09:53:00,56.1,55.0,30.01,North,5,2.3,2.3,96,0.00,OVC,,0.00,127.0,WeatherDisplay:10.37,2013-09-30 13:53:00,
2013-09-30 09:58:00,56.4,55.3,30.00,North,5,0.0,0.0,96,0.00,OVC,,0.00,141.0,WeatherDisplay:10.37,2013-09-30 13:58:00,
2013-09-30 10:03:00,56.7,55.6,30.00,NE,34,3.5,3.5,96,0.00,OVC,,0.00,153.0,WeatherDisplay:10.37,2013-09-30 14:03:00,
2013-09-30 10:08:00,57.0,55.6,30.00,NE,34,0.0,0.0,95,0.00,OVC,,0.00,174.0,WeatherDisplay:10.37,2013-09-30 14:08:00,
2013-09-30 10:13:00,57.3,55.6,30.00,NE,35,1.0,1.0,94,0.00,OVC,,0.00,178.0,WeatherDisplay:10.37,2013-09-30 14:13:00,
2013-09-30 10:18:00,57.5,55.2,30.00,NE,35,0.0,0.0,92,0.00,OVC,,0.00,185.0,WeatherDisplay:10.37,2013-09-30 14:18:00,
2013-09-30 10:23:00,57.9,55.6,30.00,NE,35,1.2,1.2,92,0.00,OVC,,0.00,195.0,WeatherDisplay:10.37,2013-09-30 14:23:00,
2013-09-30 10:28:00,58.3,55.7,30.00,NE,35,1.2,1.2,91,0.00,OVC,,0.00,211.0,WeatherDisplay:10.37,2013-09-30 14:28:00,
2013-09-30 10:33:00,58.6,55.7,30.00,NE,35,2.0,2.0,90,0.00,OVC,,0.00,234.0,WeatherDisplay:10.37,2013-09-30 14:33:00,
2013-09-30 10:38:00,58.8,55.3,30.00,NE,42,1.2,0.0,88,0.00,OVC,,0.00,234.0,WeatherDisplay:10.37,2013-09-30 14:38:00,
2013-09-30 10:43:00,59.2,55.6,30.00,NE,42,0.0,1.3,88,0.00,OVC,,0.00,262.0,WeatherDisplay:10.37,2013-09-30 14:43:00,
2013-09-30 10:48:00,59.5,55.6,30.00,NE,42,2.3,2.3,87,0.00,OVC,,0.00,308.0,WeatherDisplay:10.37,2013-09-30 14:48:00,
2013-09-30 10:53:00,59.8,55.9,30.00,NE,43,2.3,2.3,87,0.00,OVC,,0.00,297.0,WeatherDisplay:10.37,2013-09-30 14:53:00,
2013-09-30 10:58:00,60.0,56.1,29.99,NE,55,4.0,4.0,87,0.00,OVC,,0.00,327.0,WeatherDisplay:10.37,2013-09-30 14:58:00,
2013-09-30 11:03:00,60.5,55.3,29.99,East,80,4.6,4.6,83,0.00,OVC,,0.00,492.0,WeatherDisplay:10.37,2013-09-30 15:03:00,
2013-09-30 11:08:00,61.2,57.0,29.99,East,79,6.9,6.9,86,0.00,OVC,,0.00,561.0,WeatherDisplay:10.37,2013-09-30 15:08:00,
2013-09-30 11:13:00,61.9,57.7,29.98,SSE,148,3.5,3.5,86,0.00,OVC,,0.00,561.0,WeatherDisplay:10.37,2013-09-30 15:13:00,
2013-09-30 11:18:00,62.8,56.9,29.98,SE,144,3.5,3.5,81,0.00,OVC,,0.00,570.0,WeatherDisplay:10.37,2013-09-30 15:18:00,
2013-09-30 11:23:00,63.3,57.4,29.98,SE,145,3.5,3.5,81,0.00,OVC,,0.00,582.0,WeatherDisplay:10.37,2013-09-30 15:23:00,
2013-09-30 11:28:00,64.0,57.4,29.98,SSE,156,4.6,4.6,79,0.00,OVC,,0.00,594.0,WeatherDisplay:10.37,2013-09-30 15:28:00,
2013-09-30 11:33:00,64.3,56.2,29.98,SSE,155,3.5,3.5,75,0.00,OVC,,0.00,605.0,WeatherDisplay:10.37,2013-09-30 15:33:00,
2013-09-30 11:38:00,64.4,57.4,29.97,SSE,155,3.5,3.5,78,0.00,OVC,,0.00,619.0,WeatherDisplay:10.37,2013-09-30 15:38:00,
2013-09-30 11:43:00,64.8,55.9,29.97,SE,136,3.5,3.5,73,0.00,OVC,,0.00,636.0,WeatherDisplay:10.37,2013-09-30 15:43:00,
2013-09-30 11:48:00,64.8,56.3,29.97,SSW,203,4.6,4.6,74,0.00,OVC,,0.00,657.0,WeatherDisplay:10.37,2013-09-30 15:48:00,
2013-09-30 11:53:00,65.0,55.0,29.97,SSE,153,3.5,3.5,70,0.00,OVC,,0.00,693.0,WeatherDisplay:10.37,2013-09-30 15:53:00,
2013-09-30 11:58:00,65.2,55.6,29.97,South,187,6.9,6.9,71,0.00,OVC,,0.00,649.0,WeatherDisplay:10.37,2013-09-30 15:58:00,
2013-09-30 12:03:00,65.4,56.5,29.97,SW,217,1.2,1.2,73,0.00,OVC,,0.00,612.0,WeatherDisplay:10.37,2013-09-30 16:03:00,
2013-09-30 12:08:00,65.8,54.9,29.97,SSE,163,3.5,3.5,68,0.00,OVC,,0.00,768.0,WeatherDisplay:10.37,2013-09-30 16:08:00,
2013-09-30 12:13:00,66.0,53.9,29.96,South,187,6.9,6.9,65,0.00,OVC,,0.00,520.0,WeatherDisplay:10.37,2013-09-30 16:13:00,
2013-09-30 12:18:00,65.8,53.7,29.97,SSW,192,5.8,5.8,65,0.00,OVC,,0.00,431.0,WeatherDisplay:10.37,2013-09-30 16:18:00,
2013-09-30 12:23:00,65.7,55.2,29.97,SSW,193,2.3,2.3,69,0.00,OVC,,0.00,497.0,WeatherDisplay:10.37,2013-09-30 16:23:00,
2013-09-30 12:28:00,66.0,55.1,29.97,SSW,199,1.2,1.2,68,0.00,OVC,,0.00,570.0,WeatherDisplay:10.37,2013-09-30 16:28:00,
2013-09-30 12:33:00,66.6,57.3,29.97,WSW,243,1.2,1.2,72,0.00,CLR,,0.00,756.0,WeatherDisplay:10.37,2013-09-30 16:33:00,
2013-09-30 12:38:00,66.9,55.6,29.97,SSW,194,7.0,7.0,67,0.00,CLR,,0.00,751.0,WeatherDisplay:10.37,2013-09-30 16:38:00,
2013-09-30 12:43:00,66.7,55.4,29.97,SSW,201,9.2,9.2,67,0.00,CLR,,0.00,668.0,WeatherDisplay:10.37,2013-09-30 16:43:00,
2013-09-30 12:48:00,66.6,55.7,29.97,South,191,8.0,8.0,68,0.00,CLR,,0.00,719.0,WeatherDisplay:10.37,2013-09-30 16:48:00,
2013-09-30 12:53:00,67.0,55.7,29.97,SSW,193,4.6,4.6,67,0.00,CLR,,0.00,858.0,WeatherDisplay:10.37,2013-09-30 16:53:00,
2013-09-30 12:58:00,67.4,56.5,29.97,South,188,1.2,1.2,68,0.00,CLR,,0.00,812.0,WeatherDisplay:10.37,2013-09-30 16:58:00,
2013-09-30 13:03:00,67.5,55.3,29.97,South,190,9.2,9.2,65,0.00,CLR,,0.00,780.0,WeatherDisplay:10.37,2013-09-30 17:03:00,
2013-09-30 13:08:00,67.1,54.9,29.96,WSW,240,3.5,3.5,65,0.00,CLR,,0.00,612.0,WeatherDisplay:10.37,2013-09-30 17:08:00,
2013-09-30 13:13:00,66.8,55.5,29.97,SSE,168,9.2,9.2,67,0.00,CLR,,0.00,754.0,WeatherDisplay:10.37,2013-09-30 17:13:00,
2013-09-30 13:18:00,67.1,55.4,29.96,SW,222,6.0,6.0,66,0.00,CLR,,0.00,622.0,WeatherDisplay:10.37,2013-09-30 17:18:00,
2013-09-30 13:23:00,67.4,55.2,29.96,South,180,5.8,5.8,65,0.00,CLR,,0.00,742.0,WeatherDisplay:10.37,2013-09-30 17:23:00,
2013-09-30 13:28:00,67.7,55.1,29.96,WSW,238,6.9,6.9,64,0.00,CLR,,0.00,146.0,WeatherDisplay:10.37,2013-09-30 17:28:00,
2013-09-30 13:33:00,67.4,55.2,29.96,SSW,202,9.2,9.2,65,0.00,CLR,,0.00,779.0,WeatherDisplay:10.37,2013-09-30 17:33:00,
2013-09-30 13:38:00,67.5,55.7,29.96,WSW,249,8.1,8.1,66,0.00,CLR,,0.00,765.0,WeatherDisplay:10.37,2013-09-30 17:38:00,
2013-09-30 13:43:00,67.5,55.3,29.96,WSW,237,9.2,9.2,65,0.00,CLR,,0.00,817.0,WeatherDisplay:10.37,2013-09-30 17:43:00,
2013-09-30 13:48:00,67.5,54.5,29.96,WSW,250,6.9,6.9,63,0.00,CLR,,0.00,907.0,WeatherDisplay:10.37,2013-09-30 17:48:00,
2013-09-30 13:53:00,67.8,54.3,29.95,SW,229,9.2,9.2,62,0.00,CLR,,0.00,577.0,WeatherDisplay:10.37,2013-09-30 17:53:00,
2013-09-30 13:58:00,67.9,54.4,29.95,SW,223,11.5,11.5,62,0.00,CLR,,0.00,740.0,WeatherDisplay:10.37,2013-09-30 17:58:00,
2013-09-30 14:03:00,68.2,55.6,29.95,SSW,192,6.9,6.9,64,0.00,CLR,,0.00,626.0,WeatherDisplay:10.37,2013-09-30 18:03:00,
2013-09-30 14:08:00,68.5,54.5,29.95,SSW,200,9.2,9.2,61,0.00,CLR,,0.00,766.0,WeatherDisplay:10.37,2013-09-30 18:08:00,
2013-09-30 14:13:00,68.6,55.1,29.95,SSW,207,10.4,10.4,62,0.00,CLR,,0.00,807.0,WeatherDisplay:10.37,2013-09-30 18:13:00,
2013-09-30 14:18:00,69.1,55.1,29.95,South,176,4.6,4.6,61,0.00,CLR,,0.00,737.0,WeatherDisplay:10.37,2013-09-30 18:18:00,
2013-09-30 14:23:00,69.0,55.0,29.94,SSW,212,10.4,10.4,61,0.00,CLR,,0.00,705.0,WeatherDisplay:10.37,2013-09-30 18:23:00,
2013-09-30 14:28:00,68.3,54.3,29.94,WSW,246,6.9,6.9,61,0.00,SCT,,0.00,202.0,WeatherDisplay:10.37,2013-09-30 18:28:00,
2013-09-30 14:33:00,67.3,54.3,29.94,WSW,244,9.2,9.2,63,0.00,CLR,,0.00,248.0,WeatherDisplay:10.37,2013-09-30 18:33:00,
2013-09-30 14:38:00,67.1,55.8,29.93,WSW,244,3.5,3.5,67,0.00,CLR,,0.00,828.0,WeatherDisplay:10.37,2013-09-30 18:38:00,
2013-09-30 14:43:00,67.5,54.0,29.93,WNW,297,3.5,3.5,62,0.00,CLR,,0.00,295.0,WeatherDisplay:10.37,2013-09-30 18:43:00,
2013-09-30 14:48:00,67.7,54.6,29.93,SSW,205,9.2,9.2,63,0.00,SCT,,0.00,236.0,WeatherDisplay:10.37,2013-09-30 18:48:00,
2013-09-30 14:53:00,67.7,53.8,29.93,WSW,240,4.0,4.0,61,0.00,SCT,,0.00,241.0,WeatherDisplay:10.37,2013-09-30 18:53:00,
2013-09-30 14:58:00,67.7,53.3,29.93,SSW,212,5.8,5.8,60,0.00,SCT,,0.00,225.0,WeatherDisplay:10.37,2013-09-30 18:58:00,
2013-09-30 15:03:00,67.8,52.5,29.93,SW,225,6.9,6.9,58,0.00,SCT,,0.00,230.0,WeatherDisplay:10.37,2013-09-30 19:03:00,
2013-09-30 15:08:00,68.0,52.2,29.93,SW,229,9.2,9.2,57,0.00,SCT,,0.00,225.0,WeatherDisplay:10.37,2013-09-30 19:08:00,
2013-09-30 15:13:00,67.8,52.5,29.93,West,263,4.6,4.6,58,0.00,SCT,,0.00,292.0,WeatherDisplay:10.37,2013-09-30 19:13:00,
2013-09-30 15:18:00,68.3,53.9,29.92,SW,230,6.9,6.9,60,0.00,CLR,,0.00,830.0,WeatherDisplay:10.37,2013-09-30 19:18:00,
2013-09-30 15:23:00,68.8,52.0,29.92,SSW,213,8.1,8.1,55,0.00,CLR,,0.00,406.0,WeatherDisplay:10.37,2013-09-30 19:23:00,
2013-09-30 15:28:00,68.6,53.2,29.92,West,259,4.6,4.6,58,0.00,SCT,,0.00,239.0,WeatherDisplay:10.37,2013-09-30 19:28:00,
2013-09-30 15:33:00,68.4,52.6,29.92,West,270,4.6,4.6,57,0.00,CLR,,0.00,784.0,WeatherDisplay:10.37,2013-09-30 19:33:00,
2013-09-30 15:38:00,68.8,52.9,29.91,SSW,194,7.0,7.0,57,0.00,CLR,,0.00,694.0,WeatherDisplay:10.37,2013-09-30 19:38:00,
2013-09-30 15:43:00,69.3,53.4,29.92,WSW,240,10.0,10.0,57,0.00,CLR,,0.00,522.0,WeatherDisplay:10.37,2013-09-30 19:43:00,
2013-09-30 15:48:00,69.1,52.7,29.91,SSW,196,10.4,10.4,56,0.00,BKN,,0.00,172.0,WeatherDisplay:10.37,2013-09-30 19:48:00,
2013-09-30 15:53:00,68.8,54.3,29.91,SSW,202,3.0,3.0,60,0.00,CLR,,0.00,471.0,WeatherDisplay:10.37,2013-09-30 19:53:00,
2013-09-30 15:58:00,68.9,52.1,29.91,South,187,5.8,5.8,55,0.00,CLR,,0.00,589.0,WeatherDisplay:10.37,2013-09-30 19:58:00,
2013-09-30 16:03:00,69.2,53.3,29.91,WSW,242,6.0,6.0,57,0.00,CLR,,0.00,596.0,WeatherDisplay:10.37,2013-09-30 20:03:00,
2013-09-30 16:08:00,69.2,53.3,29.91,SW,214,8.0,8.0,57,0.00,BKN,,0.00,183.0,WeatherDisplay:10.37,2013-09-30 20:08:00,
2013-09-30 16:13:00,69.6,53.7,29.92,SSW,198,2.3,2.3,57,0.00,CLR,,0.00,605.0,WeatherDisplay:10.37,2013-09-30 20:13:00,
2013-09-30 16:18:00,69.8,53.4,29.91,WSW,249,5.8,5.8,56,0.00,CLR,,0.00,605.0,WeatherDisplay:10.37,2013-09-30 20:18:00,
2013-09-30 16:23:00,69.4,53.5,29.91,SSW,211,5.0,5.0,57,0.00,BKN,,0.00,167.0,WeatherDisplay:10.37,2013-09-30 20:23:00,
2013-09-30 16:28:00,69.5,54.1,29.91,SW,223,4.6,4.6,58,0.00,CLR,,0.00,624.0,WeatherDisplay:10.37,2013-09-30 20:28:00,
2013-09-30 16:33:00,70.3,54.8,29.91,West,263,4.6,4.6,58,0.00,CLR,,0.00,563.0,WeatherDisplay:10.37,2013-09-30 20:33:00,
2013-09-30 16:38:00,70.1,53.7,29.91,SW,233,9.2,9.2,56,0.00,BKN,,0.00,125.0,WeatherDisplay:10.37,2013-09-30 20:38:00,
2013-09-30 16:43:00,69.2,53.3,29.91,WSW,254,4.6,4.6,57,0.00,BKN,,0.00,128.0,WeatherDisplay:10.37,2013-09-30 20:43:00,
2013-09-30 16:49:00,68.6,53.2,29.91,West,259,5.0,5.0,58,0.00,BKN,,0.00,172.0,WeatherDisplay:10.37,2013-09-30 20:49:00,
2013-09-30 16:54:00,68.5,53.1,29.91,SW,234,4.6,4.6,58,0.00,BKN,,0.00,287.0,WeatherDisplay:10.37,2013-09-30 20:54:00,
2013-09-30 16:59:00,69.2,54.3,29.91,WNW,290,3.5,3.5,59,0.00,FEW,,0.00,510.0,WeatherDisplay:10.37,2013-09-30 20:59:00,
2013-09-30 17:04:00,70.1,55.6,29.91,West,270,1.2,1.2,60,0.00,SCT,,0.00,455.0,WeatherDisplay:10.37,2013-09-30 21:04:00,
2013-09-30 17:09:00,70.9,54.4,29.91,WSW,237,4.0,4.0,56,0.00,SCT,,0.00,459.0,WeatherDisplay:10.37,2013-09-30 21:09:00,
2013-09-30 17:14:00,71.3,53.8,29.91,WSW,244,3.5,3.5,54,0.00,BKN,,0.00,279.0,WeatherDisplay:10.37,2013-09-30 21:14:00,
2013-09-30 17:19:00,71.0,54.0,29.91,WSW,238,6.0,6.0,55,0.00,BKN,,0.00,95.0,WeatherDisplay:10.37,2013-09-30 21:19:00,
2013-09-30 17:24:00,70.2,52.8,29.91,SW,233,6.9,6.9,54,0.00,BKN,,0.00,98.0,WeatherDisplay:10.37,2013-09-30 21:24:00,
2013-09-30 17:29:00,69.6,52.7,29.91,WSW,253,4.0,4.0,55,0.00,SCT,,0.00,396.0,WeatherDisplay:10.37,2013-09-30 21:29:00,
2013-09-30 17:34:00,69.9,53.5,29.91,WNW,283,3.5,3.5,56,0.00,SCT,,0.00,392.0,WeatherDisplay:10.37,2013-09-30 21:34:00,
2013-09-30 17:39:00,70.4,54.4,29.91,WSW,246,1.2,1.2,57,0.00,BKN,,0.00,272.0,WeatherDisplay:10.37,2013-09-30 21:39:00,
2013-09-30 17:56:00,71.4,54.4,29.91,SSW,199,3.5,0.0,55,0.00,CLR,,0.00,274.0,WeatherDisplay:10.37,2013-09-30 21:56:00,
2013-09-30 18:01:00,71.4,53.9,29.91,SSW,201,1.2,1.2,54,0.00,BKN,,0.00,278.0,WeatherDisplay:10.37,2013-09-30 22:01:00,
2013-09-30 18:06:00,71.4,53.9,29.91,SSW,201,1.2,1.2,54,0.00,BKN,,0.00,278.0,WeatherDisplay:10.37,2013-09-30 22:06:00,
2013-09-30 18:11:00,71.4,53.9,29.91,SSW,201,1.2,1.2,54,0.00,BKN,,0.00,278.0,WeatherDisplay:10.37,2013-09-30 22:11:00,
2013-09-30 18:16:00,71.4,53.9,29.91,SSW,201,1.2,1.2,54,0.00,BKN,,0.00,278.0,WeatherDisplay:10.37,2013-09-30 22:16:00,
2013-09-30 18:21:00,71.4,53.9,29.91,SSW,201,1.2,1.2,54,0.00,BKN,,0.00,278.0,WeatherDisplay:10.37,2013-09-30 22:21:00,
2013-09-30 18:26:00,71.4,53.9,29.91,SSW,201,1.2,1.2,54,0.00,BKN,,0.00,278.0,WeatherDisplay:10.37,2013-09-30 22:26:00,
2013-09-30 18:31:00,71.4,53.9,29.91,SSW,201,1.2,1.2,54,0.00,BKN,,0.00,278.0,WeatherDisplay:10.37,2013-09-30 22:31:00,
2013-09-30 18:36:00,71.4,53.9,29.91,SSW,201,1.2,1.2,54,0.00,BKN,,0.00,278.0,WeatherDisplay:10.37,2013-09-30 22:36:00,
2013-09-30 18:41:00,71.4,53.9,29.91,SSW,201,1.2,1.2,54,0.00,BKN,,0.00,278.0,WeatherDisplay:10.37,2013-09-30 22:41:00,
2013-09-30 18:46:00,71.4,53.9,29.91,SSW,201,1.2,1.2,54,0.00,BKN,,0.00,278.0,WeatherDisplay:10.37,2013-09-30 22:46:00,
2013-09-30 18:51:00,71.4,53.9,29.91,SSW,201,1.2,1.2,54,0.00,BKN,,0.00,278.0,WeatherDisplay:10.37,2013-09-30 22:51:00,
2013-09-30 18:56:00,71.4,53.9,29.91,SSW,201,1.2,1.2,54,0.00,BKN,,0.00,278.0,WeatherDisplay:10.37,2013-09-30 22:56:00,
2013-09-30 19:01:00,71.4,53.9,29.91,SSW,201,1.2,1.2,54,0.00,BKN,,0.00,278.0,WeatherDisplay:10.37,2013-09-30 23:01:00,
2013-09-30 19:06:00,71.4,53.9,29.91,SSW,201,1.2,1.2,54,0.00,BKN,,0.00,278.0,WeatherDisplay:10.37,2013-09-30 23:06:00,
2013-09-30 19:11:00,71.4,53.9,29.91,SSW,201,1.2,1.2,54,0.00,BKN,,0.00,278.0,WeatherDisplay:10.37,2013-09-30 23:11:00,
2013-09-30 19:16:00,71.4,53.9,29.91,SSW,201,1.2,1.2,54,0.00,BKN,,0.00,278.0,WeatherDisplay:10.37,2013-09-30 23:16:00,
2013-09-30 19:21:00,71.4,53.9,29.91,SSW,201,1.2,1.2,54,0.00,BKN,,0.00,278.0,WeatherDisplay:10.37,2013-09-30 23:21:00,
2013-09-30 19:26:00,71.4,53.9,29.91,SSW,201,1.2,1.2,54,0.00,BKN,,0.00,278.0,WeatherDisplay:10.37,2013-09-30 23:26:00,
2013-09-30 19:31:00,71.4,53.9,29.91,SSW,201,1.2,1.2,54,0.00,BKN,,0.00,278.0,WeatherDisplay:10.37,2013-09-30 23:31:00,
2013-09-30 19:36:00,71.4,53.9,29.91,SSW,201,1.2,1.2,54,0.00,BKN,,0.00,278.0,WeatherDisplay:10.37,2013-09-30 23:36:00,
2013-09-30 19:41:00,71.4,53.9,29.91,SSW,201,1.2,1.2,54,0.00,BKN,,0.00,278.0,WeatherDisplay:10.37,2013-09-30 23:41:00,
2013-09-30 19:46:00,71.4,53.9,29.91,SSW,201,1.2,1.2,54,0.00,BKN,,0.00,278.0,WeatherDisplay:10.37,2013-09-30 23:46:00,
2013-09-30 19:51:00,71.4,53.9,29.91,SSW,201,1.2,1.2,54,0.00,CLR,,0.00,0.0,WeatherDisplay:10.37,2013-09-30 23:51:00,
2013-09-30 22:42:00,52.2,50.8,29.93,South,184,2.0,2.0,95,0.00,CLR,,0.00,0.0,WeatherDisplay:10.37,2013-10-01 02:42:00,
2013-09-30 22:47:00,52.7,51.6,29.93,South,173,3.5,3.5,96,0.00,CLR,,0.00,0.0,WeatherDisplay:10.37,2013-10-01 02:47:00,
2013-09-30 22:52:00,52.9,51.5,29.93,South,184,3.5,3.5,95,0.00,CLR,,0.00,0.0,WeatherDisplay:10.37,2013-10-01 02:52:00,
2013-09-30 22:57:00,53.1,51.7,29.93,South,184,2.3,2.3,95,0.00,CLR,,0.00,0.0,WeatherDisplay:10.37,2013-10-01 02:57:00,
2013-09-30 23:02:00,53.2,51.8,29.93,South,184,1.2,1.2,95,0.00,CLR,,0.00,0.0,WeatherDisplay:10.37,2013-10-01 03:02:00,
2013-09-30 23:07:00,53.1,51.7,29.93,South,184,0.0,0.0,95,0.00,CLR,,0.00,0.0,WeatherDisplay:10.37,2013-10-01 03:07:00,
2013-09-30 23:12:00,52.8,51.1,29.93,South,184,0.0,0.0,94,0.00,CLR,,0.00,0.0,WeatherDisplay:10.37,2013-10-01 03:12:00,
2013-09-30 23:17:00,52.4,50.4,29.93,South,184,0.0,0.0,93,0.00,CLR,,0.00,0.0,WeatherDisplay:10.37,2013-10-01 03:17:00,
2013-09-30 23:22:00,52.1,50.1,29.93,South,184,1.2,0.0,93,0.00,CLR,,0.00,0.0,WeatherDisplay:10.37,2013-10-01 03:22:00,
2013-09-30 23:27:00,51.9,49.9,29.93,South,184,3.5,3.5,93,0.00,CLR,,0.00,0.0,WeatherDisplay:10.37,2013-10-01 03:27:00,
2013-09-30 23:32:00,51.7,50.0,29.93,South,184,2.3,2.3,94,0.00,CLR,,0.00,0.0,WeatherDisplay:10.37,2013-10-01 03:32:00,
2013-09-30 23:37:00,51.5,49.8,29.93,South,184,2.3,0.0,94,0.00,CLR,,0.00,0.0,WeatherDisplay:10.37,2013-10-01 03:37:00,
2013-09-30 23:42:00,51.3,49.6,29.93,South,184,3.5,3.5,94,0.00,CLR,,0.00,0.0,WeatherDisplay:10.37,2013-10-01 03:42:00,
2013-09-30 23:47:00,51.4,50.0,29.93,South,184,3.5,3.5,95,0.00,CLR,,0.00,0.0,WeatherDisplay:10.37,2013-10-01 03:47:00,
2013-09-30 23:52:00,51.6,50.2,29.93,South,184,3.5,3.5,95,0.00,CLR,,0.00,0.0,WeatherDisplay:10.37,2013-10-01 03:52:00,
2013-09-30 23:57:00,51.7,50.3,29.93,South,184,2.3,2.3,95,0.00,CLR,,0.00,0.0,WeatherDisplay:10.37,2013-10-01 03:57:00,